Time;durP1;ratioP1;P1;durP2;ratioP2;P2;SDS_P1;SDS_P2;PMS_P1;PMS_P2;Temp;Humidity;BMP_temperature;BMP_pressure;BME280_temperature;BME280_humidity;BME280_pressure;Samples;Min_cycle;Max_cycle;Signal;HPM_P1;HPM_P2
2022/11/07 00:02:04;;;;;;;4.87;3.00;;;;;;;7.90;100.00;100238.91;7389282;19;20411;-54
2022/11/07 00:04:33;;;;;;;6.73;3.37;;;;;;;7.92;100.00;100237.28;7390731;19;20411;-51
2022/11/07 00:07:03;;;;;;;7.53;3.70;;;;;;;7.94;100.00;100238.19;7388284;19;20438;-50
2022/11/07 00:09:33;;;;;;;5.63;3.43;;;;;;;7.99;100.00;100236.72;7388729;19;20419;-49
2022/11/07 00:12:02;;;;;;;6.30;3.90;;;;;;;8.05;100.00;100241.28;7388348;19;20435;-52
2022/11/07 00:14:34;;;;;;;5.73;3.13;;;;;;;8.05;100.00;100246.41;7392885;19;20399;-50
2022/11/07 00:17:04;;;;;;;5.43;3.30;;;;;;;8.06;100.00;100240.44;7391053;19;20450;-56
2022/11/07 00:19:33;;;;;;;6.83;3.47;;;;;;;8.13;100.00;100250.19;7389334;19;20431;-54
2022/11/07 00:22:03;;;;;;;6.50;3.07;;;;;;;8.21;100.00;100259.09;7388375;19;20407;-52
2022/11/07 00:24:32;;;;;;;5.03;2.77;;;;;;;8.18;100.00;100264.13;7390980;19;20384;-54
2022/11/07 00:27:01;;;;;;;5.03;2.70;;;;;;;8.24;100.00;100268.63;7387218;19;20448;-52
2022/11/07 00:29:33;;;;;;;8.30;3.57;;;;;;;8.26;100.00;100271.28;7389136;19;20442;-52
2022/11/07 00:32:03;;;;;;;5.83;3.10;;;;;;;8.29;100.00;100269.72;7387650;19;20454;-51
2022/11/07 00:34:34;;;;;;;7.23;3.10;;;;;;;8.31;100.00;100265.50;7390416;19;20419;-51
2022/11/07 00:37:03;;;;;;;7.60;3.37;;;;;;;8.34;100.00;100272.47;7387278;19;20399;-51
2022/11/07 00:39:33;;;;;;;3.60;2.33;;;;;;;8.34;100.00;100282.75;7388636;19;20430;-51
2022/11/07 00:42:02;;;;;;;6.40;3.00;;;;;;;8.33;100.00;100279.31;7387618;19;20444;-51
2022/11/07 00:44:34;;;;;;;5.07;2.73;;;;;;;8.35;100.00;100269.97;7390120;19;20375;-50
2022/11/07 00:47:03;;;;;;;7.03;3.90;;;;;;;8.36;100.00;100281.16;7387897;19;20423;-53
2022/11/07 00:49:33;;;;;;;7.57;3.93;;;;;;;8.38;100.00;100279.53;7388615;19;20447;-49
2022/11/07 00:52:02;;;;;;;9.87;3.57;;;;;;;8.38;100.00;100276.94;7389593;19;20443;-48
2022/11/07 00:54:32;;;;;;;5.10;2.90;;;;;;;8.40;100.00;100290.72;7389301;19;20411;-50
2022/11/07 00:57:01;;;;;;;8.20;4.40;;;;;;;8.47;100.00;100273.91;7387362;19;20439;-53
2022/11/07 00:59:34;;;;;;;5.87;2.73;;;;;;;8.44;100.00;100277.22;7388093;19;20957;-51
2022/11/07 01:02:03;;;;;;;7.10;3.60;;;;;;;8.50;100.00;100285.19;7387540;19;20430;-50
2022/11/07 01:07:14;;;;;;;4.70;2.60;;;;;;;8.50;100.00;100292.91;7387272;19;20435;-49
2022/11/07 01:09:44;;;;;;;7.23;2.53;;;;;;;8.56;100.00;100286.31;7387481;19;20445;-51
2022/11/07 01:12:13;;;;;;;4.83;2.47;;;;;;;8.54;100.00;100288.78;7391707;19;20419;-55
2022/11/07 01:14:45;;;;;;;4.90;3.10;;;;;;;8.53;100.00;100299.00;7395963;19;20391;-50
2022/11/07 01:17:15;;;;;;;12.30;3.17;;;;;;;8.56;100.00;100306.88;7396511;19;20409;-49
2022/11/07 01:19:44;;;;;;;4.50;2.83;;;;;;;8.57;100.00;100298.34;7394375;19;20415;-49
2022/11/07 01:22:14;;;;;;;5.63;3.43;;;;;;;8.58;100.00;100307.81;7391603;19;20450;-49
2022/11/07 01:24:43;;;;;;;7.90;4.07;;;;;;;8.57;100.00;100294.06;7396435;19;20391;-49
2022/11/07 01:27:13;;;;;;;2.97;1.67;;;;;;;8.58;100.00;100294.94;7393503;19;20414;-51
2022/11/07 01:29:45;;;;;;;7.53;2.90;;;;;;;8.60;100.00;100298.44;7394033;19;20456;-50
2022/11/07 01:32:14;;;;;;;4.93;2.80;;;;;;;8.63;100.00;100299.47;7393466;19;20422;-51
2022/11/07 01:34:43;;;;;;;4.53;2.30;;;;;;;8.66;100.00;100297.84;7395335;19;20811;-50
2022/11/07 01:37:13;;;;;;;9.70;3.23;;;;;;;8.63;100.00;100306.31;7393392;19;20427;-52
2022/11/07 01:39:42;;;;;;;4.90;3.10;;;;;;;8.64;100.00;100305.50;7393546;19;20980;-50
2022/11/07 01:42:12;;;;;;;10.33;3.10;;;;;;;8.60;100.00;100301.91;7393321;19;20418;-57
2022/11/07 01:44:57;;;;;;;6.03;3.27;;;;;;;8.61;100.00;100297.66;7396136;19;20417;-53
2022/11/07 01:47:29;;;;;;;5.77;3.00;;;;;;;8.66;100.00;100298.72;7395032;19;20447;-52
2022/11/07 01:50:00;;;;;;;4.10;2.20;;;;;;;8.65;100.00;100291.81;7391392;19;20952;-51
2022/11/07 01:52:32;;;;;;;5.67;3.17;;;;;;;8.67;100.00;100285.03;7395360;19;20920;-48
2022/11/07 01:55:07;;;;;;;10.43;4.10;;;;;;;8.66;100.00;100288.44;7392828;19;20384;-55
2022/11/07 01:57:39;;;;;;;9.03;3.00;;;;;;;8.66;100.00;100296.13;7395446;19;20407;-53
2022/11/07 02:00:15;;;;;;;4.43;2.80;;;;;;;8.67;100.00;100289.31;7390897;19;20419;-50
2022/11/07 02:02:46;;;;;;;7.93;4.00;;;;;;;8.69;100.00;100292.81;7395165;19;20387;-50
2022/11/07 02:05:21;;;;;;;6.07;3.07;;;;;;;8.74;100.00;100286.19;7392990;19;20418;-53
2022/11/07 02:07:50;;;;;;;7.30;3.67;;;;;;;8.74;100.00;100292.22;7395574;19;21046;-52
2022/11/07 02:10:20;;;;;;;8.40;3.70;;;;;;;8.84;100.00;100288.34;7390380;19;20770;-51
2022/11/07 02:12:49;;;;;;;7.37;3.90;;;;;;;8.83;100.00;100290.84;7395152;19;20960;-51
2022/11/07 02:15:21;;;;;;;6.97;3.87;;;;;;;8.85;100.00;100294.34;7392457;19;20403;-51
2022/11/07 02:17:51;;;;;;;8.20;3.40;;;;;;;8.85;100.00;100292.66;7395169;19;20391;-50
2022/11/07 02:20:20;;;;;;;7.00;3.27;;;;;;;8.89;100.00;100291.09;7390774;19;20426;-49
2022/11/07 02:22:53;;;;;;;9.50;3.60;;;;;;;8.88;100.00;100287.63;7394675;19;20400;-53
2022/11/07 02:25:25;;;;;;;8.53;3.30;;;;;;;8.89;100.00;100294.56;7392369;19;20424;-51
2022/11/07 02:27:58;;;;;;;9.00;3.67;;;;;;;8.93;100.00;100287.84;7398731;19;20925;-49
2022/11/07 02:30:30;;;;;;;6.40;3.27;;;;;;;8.92;100.00;100296.34;7390660;19;20446;-51
2022/11/07 02:32:59;;;;;;;5.73;2.87;;;;;;;8.93;100.00;100295.56;7394402;19;20392;-53
2022/11/07 02:35:39;;;;;;;5.13;3.20;;;;;;;8.97;100.00;100302.56;7391487;19;20431;-51
2022/11/07 02:38:11;;;;;;;6.77;3.10;;;;;;;8.95;100.00;100299.06;7391073;19;20407;-52
2022/11/07 02:40:45;;;;;;;8.70;3.40;;;;;;;9.00;100.00;100284.69;7392524;19;20447;-52
2022/11/07 02:43:15;;;;;;;8.47;2.97;;;;;;;9.08;100.00;100286.69;7394200;19;20392;-50
2022/11/07 02:45:46;;;;;;;10.97;2.60;;;;;;;9.10;100.00;100287.63;7391278;19;20487;-49
2022/11/07 02:48:16;;;;;;;7.50;3.60;;;;;;;9.08;100.00;100289.25;7395893;19;20422;-49
2022/11/07 02:50:45;;;;;;;8.97;3.00;;;;;;;9.15;100.00;100299.88;7391270;19;20411;-49
2022/11/07 02:53:16;;;;;;;6.03;3.13;;;;;;;9.13;100.00;100295.47;7393901;19;20736;-51
2022/11/07 02:55:49;;;;;;;6.47;2.90;;;;;;;9.13;100.00;100295.47;7390082;19;20455;-55
2022/11/07 02:58:18;;;;;;;5.93;3.53;;;;;;;9.15;100.00;100301.56;7393302;19;20388;-53
2022/11/07 03:00:48;;;;;;;5.17;2.40;;;;;;;9.17;100.00;100293.09;7391255;19;20952;-50
2022/11/07 03:03:17;;;;;;;11.10;3.60;;;;;;;9.19;100.00;100295.72;7393743;19;20730;-50
2022/11/07 03:05:46;;;;;;;8.60;3.57;;;;;;;9.17;100.00;100298.22;7390840;19;20431;-52
2022/11/07 03:08:16;;;;;;;5.27;2.43;;;;;;;9.24;100.00;100289.06;7393021;19;20391;-54
2022/11/07 03:10:45;;;;;;;5.13;3.10;;;;;;;9.26;100.00;100289.09;7388710;19;20443;-50
2022/11/07 03:13:17;;;;;;;5.80;2.73;;;;;;;9.29;100.00;100294.41;7393581;19;20766;-52
2022/11/07 03:15:47;;;;;;;5.87;3.40;;;;;;;9.32;100.00;100297.97;7389833;19;20463;-51
2022/11/07 03:18:16;;;;;;;12.30;3.60;;;;;;;9.38;100.00;100291.31;7392782;19;20420;-49
2022/11/07 03:20:45;;;;;;;6.80;3.10;;;;;;;9.37;100.00;100289.53;7389885;19;20451;-49
2022/11/07 03:23:15;;;;;;;6.30;2.83;;;;;;;9.36;100.00;100298.06;7396646;19;20395;-52
2022/11/07 03:25:45;;;;;;;5.40;3.37;;;;;;;9.38;100.00;100294.75;7390136;19;20423;-54
2022/11/07 03:28:17;;;;;;;6.83;3.00;;;;;;;9.39;100.00;100299.06;7395772;19;20435;-51
2022/11/07 03:30:46;;;;;;;6.27;3.50;;;;;;;9.40;100.00;100298.28;7391432;19;20411;-50
2022/11/07 03:33:16;;;;;;;4.53;2.47;;;;;;;9.42;100.00;100304.34;7392138;19;20387;-51
2022/11/07 03:35:46;;;;;;;5.50;2.73;;;;;;;9.48;100.00;100290.81;7387936;19;20435;-52
2022/11/07 03:38:15;;;;;;;6.67;3.53;;;;;;;9.49;100.00;100300.31;7391785;19;20383;-54
2022/11/07 03:40:47;;;;;;;6.70;3.37;;;;;;;9.53;100.00;100291.88;7387757;19;20436;-50
2022/11/07 03:43:19;;;;;;;6.60;3.13;;;;;;;9.49;100.00;100299.44;7392289;19;20412;-53
2022/11/07 03:45:48;;;;;;;20.90;4.40;;;;;;;9.46;100.00;100300.19;7386582;19;20415;-51
2022/11/07 03:48:18;;;;;;;11.30;3.73;;;;;;;9.42;100.00;100303.47;7391525;19;20404;-49
2022/11/07 03:50:47;;;;;;;7.20;3.87;;;;;;;9.47;100.00;100307.09;7389188;19;20395;-52
2022/11/07 03:53:17;;;;;;;9.07;3.13;;;;;;;9.49;100.00;100310.59;7391805;19;20395;-51
2022/11/07 03:55:56;;;;;;;6.53;3.23;;;;;;;9.51;100.00;100298.69;7388809;19;20426;-48
2022/11/07 03:58:28;;;;;;;7.20;2.70;;;;;;;9.51;100.00;100301.25;7390914;19;20412;-52
2022/11/07 04:00:57;;;;;;;6.27;3.50;;;;;;;9.56;100.00;100301.44;7389425;19;20419;-51
2022/11/07 04:03:27;;;;;;;4.20;3.00;;;;;;;9.59;100.00;100307.56;7391479;19;20761;-52
2022/11/07 04:05:56;;;;;;;5.43;2.97;;;;;;;9.57;100.00;100306.66;7388980;19;21294;-56
2022/11/07 04:08:25;;;;;;;12.00;4.80;;;;;;;9.50;100.00;100302.09;7390565;19;20383;-54
2022/11/07 04:10:55;;;;;;;9.73;3.40;;;;;;;9.46;100.00;100292.47;7389346;19;20419;-52
2022/11/07 04:18:52;;;;;;;10.80;3.60;;;;;;;9.55;100.00;100299.69;7389610;19;20452;-49
2022/11/07 04:21:21;;;;;;;6.17;2.70;;;;;;;9.59;100.00;100297.28;7389952;19;20435;-49
2022/11/07 04:23:50;;;;;;;7.93;2.67;;;;;;;9.59;100.00;100286.97;7393543;19;20407;-52
2022/11/07 04:29:02;;;;;;;6.60;3.67;;;;;;;9.65;100.00;100300.91;7389477;19;20431;-51
2022/11/07 04:31:34;;;;;;;10.80;4.00;;;;;;;9.65;100.00;100295.75;7387726;19;20835;-53
2022/11/07 04:34:03;;;;;;;5.17;2.77;;;;;;;9.72;100.00;100292.59;7390739;19;20388;-54
2022/11/07 04:36:35;;;;;;;8.17;3.27;;;;;;;9.72;100.00;100292.59;7387306;19;20769;-52
2022/11/07 04:39:04;;;;;;;9.63;3.17;;;;;;;9.75;100.00;100299.56;7390216;19;20446;-51
2022/11/07 04:41:33;;;;;;;6.30;2.87;;;;;;;9.75;100.00;100296.97;7386025;19;20435;-56
2022/11/07 04:44:03;;;;;;;6.33;2.30;;;;;;;9.74;100.00;100301.25;7394925;19;20416;-53
2022/11/07 04:46:35;;;;;;;8.43;3.53;;;;;;;9.79;100.00;100299.72;7385548;19;20482;-51
2022/11/07 04:49:04;;;;;;;10.23;3.33;;;;;;;9.76;100.00;100303.88;7388921;19;20453;-51
2022/11/07 04:51:34;;;;;;;7.80;2.83;;;;;;;9.76;100.00;100299.63;7387741;19;20754;-53
2022/11/07 04:54:03;;;;;;;9.00;3.37;;;;;;;9.79;100.00;100293.72;7389959;19;20419;-50
2022/11/07 04:56:32;;;;;;;7.43;2.90;;;;;;;9.76;100.00;100297.06;7386565;19;20435;-50
2022/11/07 04:59:03;;;;;;;6.47;3.57;;;;;;;9.75;100.00;100290.16;7388838;19;20419;-49
2022/11/07 05:01:35;;;;;;;11.80;3.60;;;;;;;9.74;100.00;100303.81;7386887;19;20407;-50
2022/11/07 05:04:04;;;;;;;7.10;2.30;;;;;;;9.72;100.00;100308.06;7389774;19;20787;-48
2022/11/07 05:06:36;;;;;;;7.03;3.37;;;;;;;9.68;100.00;100306.16;7386807;19;20422;-48
2022/11/07 05:09:07;;;;;;;6.53;3.33;;;;;;;9.69;100.00;100292.50;7388383;19;20983;-47
2022/11/07 05:11:36;;;;;;;8.00;3.20;;;;;;;9.71;100.00;100286.53;7386544;19;20415;-50
2022/11/07 05:14:07;;;;;;;3.87;1.70;;;;;;;9.66;100.00;100302.66;7389349;19;20383;-49
2022/11/07 05:16:39;;;;;;;6.93;3.03;;;;;;;9.72;100.00;100302.91;7386043;19;20458;-52
2022/11/07 05:19:08;;;;;;;9.27;3.43;;;;;;;9.69;100.00;100297.66;7388118;19;20419;-52
2022/11/07 05:21:38;;;;;;;8.77;3.80;;;;;;;9.62;100.00;100295.63;7386560;19;20411;-50
2022/11/07 05:24:05;;;;;;;9.90;3.33;;;;;;;9.68;100.00;100299.31;7391907;19;20415;-49
2022/11/07 05:26:35;;;;;;;7.93;3.50;;;;;;;9.67;100.00;100291.53;7385867;19;20423;-50
2022/11/07 05:29:04;;;;;;;4.30;2.93;;;;;;;9.72;100.00;100298.63;7387920;19;20797;-49
2022/11/07 05:31:34;;;;;;;6.37;3.13;;;;;;;9.75;100.00;100297.88;7389582;19;20447;-51
2022/11/07 05:34:06;;;;;;;10.60;3.47;;;;;;;9.73;100.00;100294.34;7388593;19;20402;-56
2022/11/07 05:36:41;;;;;;;11.93;3.20;;;;;;;9.69;100.00;100295.06;7385463;19;20406;-50
2022/11/07 05:39:11;;;;;;;8.03;3.47;;;;;;;9.65;100.00;100294.03;7387657;19;20415;-49
2022/11/07 05:41:40;;;;;;;14.07;3.10;;;;;;;9.63;100.00;100306.00;7385283;19;20804;-49
2022/11/07 05:44:11;;;;;;;9.17;2.80;;;;;;;9.62;100.00;100300.78;7388744;19;20400;-50
2022/11/07 05:46:40;;;;;;;8.40;3.40;;;;;;;9.55;100.00;100305.69;7385406;19;20427;-50
2022/11/07 05:49:12;;;;;;;9.27;3.93;;;;;;;9.52;100.00;100290.13;7387372;19;20423;-53
2022/11/07 05:51:42;;;;;;;9.30;3.30;;;;;;;9.49;100.00;100284.00;7385573;19;20451;-53
2022/11/07 05:54:11;;;;;;;10.47;3.70;;;;;;;9.45;100.00;100295.88;7388466;19;20761;-52
2022/11/07 05:56:42;;;;;;;6.70;3.60;;;;;;;9.45;100.00;100289.00;7385420;19;20430;-51
2022/11/07 05:59:12;;;;;;;22.03;4.20;;;;;;;9.39;100.00;100288.75;7393846;19;20435;-54
2022/11/07 06:01:42;;;;;;;6.17;3.13;;;;;;;9.34;100.00;100285.16;7392882;19;21008;-54
2022/11/07 06:04:17;;;;;;;9.10;4.10;;;;;;;9.32;100.00;100277.38;7395466;19;20416;-51
2022/11/07 06:06:46;;;;;;;7.23;3.10;;;;;;;9.37;100.00;100267.25;7392812;19;20418;-50
2022/11/07 06:09:16;;;;;;;4.80;3.37;;;;;;;9.36;100.00;100270.63;7393834;19;20474;-52
2022/11/07 06:11:45;;;;;;;9.93;3.70;;;;;;;9.31;100.00;100272.16;7392144;19;20983;-49
2022/11/07 06:14:15;;;;;;;9.17;3.40;;;;;;;9.27;100.00;100268.59;7395256;19;20383;-54
2022/11/07 06:16:44;;;;;;;10.27;3.47;;;;;;;9.29;100.00;100289.25;7388857;19;20443;-49
2022/11/07 06:19:16;;;;;;;10.70;3.80;;;;;;;9.29;100.00;100277.22;7393173;19;20459;-50
2022/11/07 06:21:45;;;;;;;6.10;3.30;;;;;;;9.28;100.00;100270.34;7395779;19;20431;-50
2022/11/07 06:24:15;;;;;;;9.23;3.43;;;;;;;9.26;100.00;100277.13;7398849;19;20388;-48
2022/11/07 06:26:45;;;;;;;8.40;3.40;;;;;;;9.24;100.00;100272.72;7395135;19;20451;-50
2022/11/07 06:29:14;;;;;;;6.07;2.90;;;;;;;9.20;100.00;100269.16;7392950;19;20440;-50
2022/11/07 06:31:43;;;;;;;6.80;3.67;;;;;;;9.25;100.00;100267.66;7391578;19;20788;-51
2022/11/07 06:34:13;;;;;;;7.77;3.93;;;;;;;9.27;100.00;100268.59;7393938;19;20372;-50
2022/11/07 06:36:45;;;;;;;8.60;3.90;;;;;;;9.27;100.00;100276.31;7394362;19;20427;-52
2022/11/07 06:39:27;;;;;;;13.23;4.43;;;;;;;9.27;100.00;100278.00;7392324;19;20419;-50
2022/11/07 06:41:56;;;;;;;6.57;3.40;;;;;;;9.27;100.00;100275.41;7391457;19;20411;-50
2022/11/07 06:44:26;;;;;;;9.93;4.23;;;;;;;9.29;100.00;100282.38;7393899;19;20388;-54
2022/11/07 06:46:55;;;;;;;7.63;3.00;;;;;;;9.27;100.00;100288.28;7390704;19;20423;-50
2022/11/07 06:49:25;;;;;;;8.37;3.27;;;;;;;9.25;100.00;100284.78;7391902;19;20423;-52
2022/11/07 06:51:57;;;;;;;7.83;3.80;;;;;;;9.28;100.00;100285.78;7390619;19;20419;-50
2022/11/07 06:54:26;;;;;;;14.47;4.20;;;;;;;9.24;100.00;100288.19;7397547;19;20403;-54
2022/11/07 06:56:56;;;;;;;7.67;3.87;;;;;;;9.24;100.00;100294.22;7390466;19;20415;-54
2022/11/07 06:59:25;;;;;;;7.47;3.60;;;;;;;9.22;100.00;100289.81;7389931;19;20423;-52
2022/11/07 07:01:55;;;;;;;9.33;3.17;;;;;;;9.26;100.00;100294.25;7390262;19;20419;-50
2022/11/07 07:04:24;;;;;;;7.43;3.80;;;;;;;9.27;100.00;100298.59;7393144;19;20379;-51
2022/11/07 07:06:56;;;;;;;8.00;3.53;;;;;;;9.27;100.00;100303.72;7390208;19;20447;-55
2022/11/07 07:09:27;;;;;;;9.63;3.67;;;;;;;9.29;100.00;100302.97;7391810;19;20468;-52
2022/11/07 07:11:56;;;;;;;10.73;4.20;;;;;;;9.35;100.00;100309.19;7393686;19;21001;-57
2022/11/07 07:14:26;;;;;;;4.80;2.90;;;;;;;9.40;100.00;100299.97;7392548;19;20388;-56
2022/11/07 07:16:57;;;;;;;11.00;3.70;;;;;;;9.40;100.00;100306.00;7392695;19;20467;-55
2022/11/07 07:19:27;;;;;;;9.07;3.43;;;;;;;9.42;100.00;100306.94;7389767;19;20423;-55
2022/11/07 07:21:59;;;;;;;6.83;3.70;;;;;;;9.47;100.00;100311.38;7389671;19;20776;-57
2022/11/07 07:24:28;;;;;;;10.73;4.00;;;;;;;9.49;100.00;100315.75;7392309;19;21237;-54
2022/11/07 07:26:58;;;;;;;11.83;4.10;;;;;;;9.52;100.00;100322.72;7391081;19;20455;-55
2022/11/07 07:29:27;;;;;;;9.17;3.97;;;;;;;9.54;100.00;100314.25;7389595;19;20447;-57
2022/11/07 07:31:56;;;;;;;8.30;3.70;;;;;;;9.55;100.00;100310.84;7389170;19;20443;-53
2022/11/07 07:34:26;;;;;;;6.60;3.33;;;;;;;9.57;100.00;100321.22;7391679;19;20416;-51
2022/11/07 07:36:58;;;;;;;6.53;3.63;;;;;;;9.62;100.00;100321.38;7389596;19;20415;-54
2022/11/07 07:39:29;;;;;;;6.87;3.00;;;;;;;9.62;100.00;100317.13;7389119;19;20423;-55
2022/11/07 07:41:59;;;;;;;10.17;3.80;;;;;;;9.67;100.00;100327.59;7388512;19;20449;-51
2022/11/07 07:44:28;;;;;;;11.10;3.97;;;;;;;9.68;100.00;100322.50;7391570;19;21037;-53
2022/11/07 07:46:58;;;;;;;9.20;3.80;;;;;;;9.70;100.00;100330.31;7388790;19;20448;-53
2022/11/07 07:49:28;;;;;;;16.23;4.10;;;;;;;9.74;100.00;100332.16;7389926;19;20423;-51
2022/11/07 07:52:00;;;;;;;7.00;3.30;;;;;;;9.77;100.00;100337.44;7388683;19;20420;-54
2022/11/07 07:54:30;;;;;;;11.67;3.60;;;;;;;9.78;100.00;100331.47;7391262;19;20392;-53
2022/11/07 07:57:00;;;;;;;11.17;3.87;;;;;;;9.79;100.00;100340.94;7388745;19;20444;-49
2022/11/07 07:59:29;;;;;;;11.00;3.30;;;;;;;9.84;100.00;100349.75;7388945;19;20423;-53
2022/11/07 08:01:59;;;;;;;5.97;2.90;;;;;;;9.89;100.00;100349.91;7388514;19;20763;-54
2022/11/07 08:04:29;;;;;;;8.47;2.70;;;;;;;9.92;100.00;100349.16;7391370;19;20496;-55
2022/11/07 08:07:01;;;;;;;16.53;3.20;;;;;;;9.95;100.00;100357.88;7388868;19;20415;-50
2022/11/07 08:09:35;;;;;;;8.03;3.07;;;;;;;9.96;100.00;100358.75;7389383;19;20415;-54
2022/11/07 08:12:05;;;;;;;10.07;3.30;;;;;;;10.03;100.00;100359.84;7388915;19;20796;-50
2022/11/07 08:14:35;;;;;;;10.07;3.13;;;;;;;10.06;100.00;100358.28;7390891;19;20412;-52
2022/11/07 08:17:04;;;;;;;8.43;3.43;;;;;;;10.08;100.00;100364.38;7388543;19;20416;-55
2022/11/07 08:19:34;;;;;;;16.20;3.77;;;;;;;10.10;100.00;100357.56;7389093;19;20764;-49
2022/11/07 08:22:06;;;;;;;8.60;3.20;;;;;;;10.12;100.00;100375.69;7388955;19;20412;-51
2022/11/07 08:24:35;;;;;;;4.77;2.20;;;;;;;10.15;100.00;100374.91;7390829;19;20411;-51
2022/11/07 08:27:05;;;;;;;13.67;3.70;;;;;;;10.18;100.00;100382.75;7389173;19;20447;-55
2022/11/07 08:29:34;;;;;;;12.10;3.30;;;;;;;10.20;100.00;100399.19;7388687;19;20443;-51
2022/11/07 08:32:04;;;;;;;6.23;2.90;;;;;;;10.22;100.00;100397.53;7391363;19;20776;-51
2022/11/07 08:34:33;;;;;;;16.77;3.77;;;;;;;10.28;100.00;100395.19;7392001;19;20772;-52
2022/11/07 08:37:06;;;;;;;16.27;4.30;;;;;;;10.28;100.00;100392.59;7387638;19;20444;-53
2022/11/07 08:39:35;;;;;;;5.77;2.90;;;;;;;10.26;100.00;100400.28;7387682;19;20427;-54
2022/11/07 08:42:05;;;;;;;8.57;3.23;;;;;;;10.30;100.00;100402.97;7387171;19;20902;-52
2022/11/07 08:44:35;;;;;;;9.30;3.67;;;;;;;10.30;100.00;100416.72;7390092;19;20384;-55
2022/11/07 08:47:05;;;;;;;7.57;2.80;;;;;;;10.35;100.00;100407.47;7387633;19;20419;-54
2022/11/07 08:49:37;;;;;;;12.77;3.23;;;;;;;10.39;100.00;100416.19;7388273;19;20455;-53
2022/11/07 08:52:09;;;;;;;8.83;3.53;;;;;;;10.43;100.00;100417.22;7387527;19;20422;-53
2022/11/07 08:54:38;;;;;;;7.23;2.83;;;;;;;10.49;100.00;100413.19;7389636;19;20396;-55
2022/11/07 08:57:09;;;;;;;13.43;3.43;;;;;;;10.59;100.00;100418.66;7385602;19;20945;-53
2022/11/07 08:59:38;;;;;;;10.37;3.40;;;;;;;10.67;100.00;100443.91;7387524;19;20457;-51
2022/11/07 09:02:08;;;;;;;9.00;2.70;;;;;;;10.62;100.00;100434.28;7387185;19;20443;-54
2022/11/07 09:04:57;;;;;;;7.03;3.53;;;;;;;10.60;100.00;100431.63;7387086;19;20947;-53
2022/11/07 09:07:30;;;;;;;6.80;3.30;;;;;;;10.59;100.00;100445.34;7391674;19;20392;-54
2022/11/07 09:09:59;;;;;;;9.23;3.23;;;;;;;10.62;100.00;100445.44;7385791;19;20416;-54
2022/11/07 09:12:28;;;;;;;11.37;3.60;;;;;;;10.61;100.00;100441.13;7388782;19;20380;-54
2022/11/07 09:14:58;;;;;;;8.80;3.67;;;;;;;10.67;100.00;100437.91;7387376;19;20925;-52
2022/11/07 09:17:27;;;;;;;4.70;2.53;;;;;;;10.72;100.00;100427.75;7388941;19;20747;-51
2022/11/07 09:19:57;;;;;;;10.93;3.10;;;;;;;10.81;100.00;100448.69;7385274;19;20433;-50
2022/11/07 09:22:26;;;;;;;8.40;3.77;;;;;;;10.93;100.00;100435.38;7388704;19;20756;-55
2022/11/07 09:24:58;;;;;;;10.83;3.90;;;;;;;10.93;100.00;100433.66;7386955;19;20397;-52
2022/11/07 09:27:28;;;;;;;7.83;3.10;;;;;;;10.99;100.00;100434.69;7387930;19;20423;-52
2022/11/07 09:29:57;;;;;;;6.17;2.50;;;;;;;11.04;100.00;100435.72;7385420;19;20429;-53
2022/11/07 09:32:27;;;;;;;13.93;3.90;;;;;;;11.14;100.00;100437.81;7390735;19;20756;-55
2022/11/07 09:35:15;;;;;;;6.77;2.10;;;;;;;11.07;100.00;100459.06;7393986;19;20760;-55
2022/11/07 09:37:45;;;;;;;10.10;3.37;;;;;;;11.07;100.00;100459.06;7395964;19;20408;-51
2022/11/07 09:40:24;;;;;;;12.23;3.80;;;;;;;11.08;100.00;100460.84;7390557;19;20403;-52
2022/11/07 09:43:03;;;;;;;8.50;3.57;;;;;;;11.12;100.00;100473.00;7396426;19;20384;-50
2022/11/07 09:45:40;;;;;;;9.50;3.10;;;;;;;11.25;100.00;100470.84;7393419;19;20521;-51
2022/11/07 09:48:18;;;;;;;9.93;3.03;;;;;;;11.32;100.00;100473.72;7396190;19;20945;-56
2022/11/07 09:50:48;;;;;;;8.67;3.00;;;;;;;11.39;100.00;100472.19;7391357;19;20412;-56
2022/11/07 09:53:30;;;;;;;7.90;3.37;;;;;;;11.39;100.00;100484.25;7395845;19;20388;-53
2022/11/07 09:56:03;;;;;;;9.13;3.27;;;;;;;11.37;100.00;100484.19;7392926;19;20441;-52
2022/11/07 09:58:35;;;;;;;8.13;2.93;;;;;;;11.41;100.00;100496.41;7394997;19;20420;-51
2022/11/07 10:01:08;;;;;;;9.30;3.13;;;;;;;11.46;100.00;100493.97;7392040;19;20415;-51
2022/11/07 10:03:39;;;;;;;9.90;3.10;;;;;;;11.48;100.00;100497.47;7395637;19;20389;-56
2022/11/07 10:06:25;;;;;;;12.10;5.33;;;;;;;11.61;100.00;100506.53;7392758;19;20423;-52
2022/11/07 10:09:00;;;;;;;8.53;2.97;;;;;;;11.62;100.00;100503.09;7394772;19;20412;-54
2022/11/07 10:11:36;;;;;;;11.13;2.23;;;;;;;11.59;100.00;100515.94;7392493;19;20409;-55
2022/11/07 10:14:18;;;;;;;8.10;3.23;;;;;;;11.64;100.00;100518.66;7395739;19;20379;-51
2022/11/07 10:17:01;;;;;;;7.47;2.93;;;;;;;11.60;100.00;100528.03;7392564;19;20480;-54
2022/11/07 10:19:56;;;;;;;6.03;3.07;;;;;;;11.59;100.00;100528.88;7392838;19;20460;-55
2022/11/07 10:22:41;;;;;;;6.67;2.47;;;;;;;11.55;100.00;100542.50;7393975;19;20436;-57
2022/11/07 10:25:21;;;;;;;5.37;2.40;;;;;;;11.48;100.00;100531.94;7396270;19;20438;-57
2022/11/07 10:28:06;;;;;;;9.60;4.10;;;;;;;11.48;100.00;100529.38;7396981;19;20975;-54
2022/11/07 10:30:36;;;;;;;7.70;3.00;;;;;;;11.45;100.00;100526.66;7390084;19;20793;-53
2022/11/07 10:33:12;;;;;;;7.10;3.37;;;;;;;11.40;100.00;100520.47;7396419;19;20420;-52
2022/11/07 10:35:45;;;;;;;8.23;3.87;;;;;;;11.40;100.00;100529.91;7392138;19;20962;-54
2022/11/07 10:38:21;;;;;;;10.00;4.00;;;;;;;11.41;100.00;100522.22;7394143;19;20425;-55
2022/11/07 10:40:52;;;;;;;8.20;3.27;;;;;;;11.44;100.00;100522.31;7389686;19;20421;-57
2022/11/07 10:43:31;;;;;;;11.10;4.80;;;;;;;11.49;100.00;100532.84;7392883;19;20442;-56
2022/11/07 10:46:01;;;;;;;10.70;4.17;;;;;;;11.55;100.00;100520.13;7388378;19;20450;-54
2022/11/07 10:48:32;;;;;;;10.77;3.40;;;;;;;11.72;100.00;100523.28;7393299;19;20382;-51
2022/11/07 10:51:01;;;;;;;7.50;3.67;;;;;;;11.66;100.00;100541.16;7390498;19;20426;-56
2022/11/07 10:53:31;;;;;;;8.30;3.07;;;;;;;11.68;100.00;100531.75;7393757;19;20395;-53
2022/11/07 10:56:00;;;;;;;20.53;3.80;;;;;;;11.62;100.00;100531.53;7391419;19;20952;-53
2022/11/07 10:58:38;;;;;;;6.03;2.67;;;;;;;11.64;100.00;100534.19;7393084;19;20772;-56
2022/11/07 11:01:09;;;;;;;11.43;3.80;;;;;;;11.64;100.00;100540.22;7390625;19;20405;-54
2022/11/07 11:03:42;;;;;;;11.97;3.90;;;;;;;11.58;100.00;100530.56;7394194;19;20390;-51
2022/11/07 11:06:25;;;;;;;7.40;3.13;;;;;;;11.56;100.00;100521.00;7390822;19;21195;-53
2022/11/07 11:08:55;;;;;;;8.97;4.93;;;;;;;11.55;100.00;100516.66;7392692;19;20420;-50
2022/11/07 11:11:36;;;;;;;7.30;3.70;;;;;;;11.57;100.00;100510.72;7390075;19;20410;-54
2022/11/07 11:14:13;;;;;;;10.90;3.97;;;;;;;11.63;100.00;100517.78;7392959;19;20394;-54
2022/11/07 11:16:43;;;;;;;8.03;3.70;;;;;;;11.65;100.00;100518.72;7390285;19;20417;-53
2022/11/07 11:19:22;;;;;;;14.40;3.80;;;;;;;11.70;100.00;100529.22;7393979;19;20975;-53
2022/11/07 11:21:53;;;;;;;9.93;3.17;;;;;;;11.74;100.00;100531.94;7393647;19;20422;-51
2022/11/07 11:24:36;;;;;;;10.90;2.80;;;;;;;11.80;100.00;100530.41;7392604;19;20389;-50
2022/11/07 11:27:13;;;;;;;10.30;3.17;;;;;;;11.80;100.00;100525.22;7390545;19;21004;-52
2022/11/07 11:29:50;;;;;;;8.40;2.17;;;;;;;11.84;100.00;100537.44;7390760;19;20446;-55
2022/11/07 11:32:25;;;;;;;9.47;3.73;;;;;;;11.80;100.00;100541.59;7392006;19;20946;-51
2022/11/07 11:35:04;;;;;;;13.20;3.80;;;;;;;11.81;100.00;100538.22;7387468;19;20397;-51
2022/11/07 11:37:36;;;;;;;11.53;3.57;;;;;;;11.86;100.00;100536.63;7392477;19;20378;-53
2022/11/07 11:40:10;;;;;;;4.53;1.80;;;;;;;11.80;100.00;100527.81;7387120;19;20442;-52
2022/11/07 11:42:47;;;;;;;10.83;3.30;;;;;;;11.80;100.00;100536.44;7392533;19;20410;-50
2022/11/07 11:45:23;;;;;;;7.47;3.27;;;;;;;11.79;100.00;100529.50;7389567;19;20430;-52
2022/11/07 11:47:59;;;;;;;13.23;3.53;;;;;;;11.81;100.00;100532.16;7391265;19;20905;-53
2022/11/07 11:50:37;;;;;;;7.50;2.70;;;;;;;11.79;100.00;100526.06;7387522;19;20809;-55
2022/11/07 11:53:09;;;;;;;10.53;3.10;;;;;;;11.81;100.00;100524.41;7392187;19;20387;-52